createdAt,value
2022-11-06T00:01:18.150Z,85.54
2022-11-06T00:03:46.518Z,85.43
2022-11-06T00:06:38.109Z,85.48
2022-11-06T00:09:10.116Z,85.61
2022-11-06T00:11:40.162Z,85.95
2022-11-06T00:14:09.029Z,85.96
2022-11-06T00:16:40.365Z,86.18
2022-11-06T00:19:09.635Z,86.56
2022-11-06T00:21:37.977Z,86.38
2022-11-06T00:24:08.401Z,85.99
2022-11-06T00:26:36.806Z,86.07
2022-11-06T00:29:05.868Z,85.92
2022-11-06T00:31:37.676Z,85.82
2022-11-06T00:34:08.149Z,85.54
2022-11-06T00:36:40.348Z,85.84
2022-11-06T00:39:11.420Z,86.17
2022-11-06T00:41:40.011Z,85.98
2022-11-06T00:44:10.764Z,85.97
2022-11-06T00:46:40.322Z,85.76
2022-11-06T00:49:09.061Z,86.45
2022-11-06T00:51:44.091Z,86.12
2022-11-06T00:54:14.284Z,86.01
2022-11-06T00:56:43.580Z,85.93
2022-11-06T00:59:15.214Z,86.20
2022-11-06T01:01:45.793Z,86.02
2022-11-06T01:04:18.549Z,86.12
2022-11-06T01:06:50.602Z,86.06
2022-11-06T01:09:20.246Z,86.14
2022-11-06T01:14:41.370Z,85.89
2022-11-06T01:17:09.829Z,85.98
2022-11-06T01:19:40.250Z,85.91
2022-11-06T01:22:09.106Z,85.92
2022-11-06T01:24:41.772Z,85.88
2022-11-06T01:27:27.164Z,85.70
2022-11-06T01:29:57.462Z,85.76
2022-11-06T01:32:25.814Z,85.71
2022-11-06T01:34:54.084Z,85.99
2022-11-06T01:37:22.173Z,85.86
2022-11-06T01:39:55.244Z,85.92
2022-11-06T01:42:23.933Z,86.33
2022-11-06T01:47:53.063Z,86.12
2022-11-06T01:50:22.347Z,86.27
2022-11-06T01:52:54.450Z,86.23
2022-11-06T01:55:35.029Z,86.21
2022-11-06T01:58:06.369Z,86.52
2022-11-06T02:00:44.297Z,86.49
2022-11-06T02:03:15.803Z,86.44
2022-11-06T02:05:45.913Z,86.53
2022-11-06T02:08:17.463Z,86.86
2022-11-06T02:11:03.041Z,86.60
2022-11-06T02:19:50.169Z,86.73
2022-11-06T02:22:38.263Z,86.85
2022-11-06T02:27:56.961Z,87.08
2022-11-06T02:30:32.670Z,87.08
2022-11-06T02:33:07.762Z,86.43
2022-11-06T02:35:43.106Z,86.72
2022-11-06T02:38:19.241Z,86.68
2022-11-06T02:40:57.734Z,86.84
2022-11-06T02:43:40.512Z,87.09
2022-11-06T02:46:20.422Z,86.88
2022-11-06T02:48:59.682Z,86.94
2022-11-06T02:51:34.497Z,86.99
2022-11-06T02:54:14.555Z,86.90
2022-11-06T02:56:58.683Z,86.98
2022-11-06T02:59:44.446Z,86.86
2022-11-06T03:02:29.823Z,86.97
2022-11-06T03:05:23.197Z,86.88
2022-11-06T03:08:06.541Z,87.17
2022-11-06T03:11:07.138Z,87.22
2022-11-06T03:17:10.417Z,87.02
2022-11-06T03:20:11.103Z,86.80
2022-11-06T03:29:02.391Z,87.02
2022-11-06T03:31:42.270Z,87.43
2022-11-06T03:34:28.495Z,87.11
2022-11-06T03:37:22.497Z,87.13
2022-11-06T03:40:04.077Z,86.71
2022-11-06T03:42:52.451Z,86.78
2022-11-06T03:45:28.205Z,86.83
2022-11-06T03:48:35.559Z,86.60
2022-11-06T03:56:34.837Z,86.86
2022-11-06T03:59:08.799Z,87.01
2022-11-06T04:01:55.350Z,86.96
2022-11-06T04:04:35.765Z,86.78
2022-11-06T04:07:16.015Z,87.05
2022-11-06T04:10:12.601Z,87.05
2022-11-06T04:13:08.973Z,87.35
2022-11-06T04:15:47.391Z,87.03
2022-11-06T04:18:21.435Z,87.54
2022-11-06T04:21:28.436Z,87.06
2022-11-06T04:32:26.400Z,86.76
2022-11-06T04:38:38.763Z,87.04
2022-11-06T04:41:38.405Z,86.78
2022-11-06T04:46:56.100Z,86.81
2022-11-06T04:49:35.577Z,86.75
2022-11-06T04:52:16.005Z,86.89
2022-11-06T04:55:01.063Z,86.91
2022-11-06T04:57:48.525Z,87.06
2022-11-06T05:00:26.331Z,86.81
2022-11-06T05:03:06.913Z,87.00
2022-11-06T05:05:50.644Z,87.06
2022-11-06T05:08:34.074Z,87.01
2022-11-06T05:11:24.041Z,87.23
2022-11-06T05:14:00.138Z,87.01
2022-11-06T05:16:35.759Z,86.86
2022-11-06T05:19:28.414Z,86.67
2022-11-06T05:25:14.610Z,86.22
2022-11-06T05:28:11.913Z,85.99
2022-11-06T05:30:53.046Z,85.90
2022-11-06T05:33:26.522Z,86.08
2022-11-06T05:36:14.286Z,86.08
2022-11-06T05:38:55.801Z,86.28
2022-11-06T05:41:41.222Z,86.43
2022-11-06T05:44:19.812Z,86.47
2022-11-06T05:46:55.517Z,86.45
2022-11-06T05:49:31.476Z,86.51
2022-11-06T05:52:04.020Z,85.99
2022-11-06T05:54:34.406Z,86.31
2022-11-06T05:57:08.341Z,86.25
2022-11-06T05:59:37.099Z,86.36
2022-11-06T06:02:06.889Z,86.71
2022-11-06T06:04:36.683Z,86.29
2022-11-06T06:07:22.524Z,86.17
2022-11-06T06:10:11.744Z,85.48
2022-11-06T06:12:55.661Z,85.68
2022-11-06T06:15:27.505Z,85.47
2022-11-06T06:18:02.129Z,85.67
2022-11-06T06:21:02.484Z,85.64
2022-11-06T06:23:32.386Z,85.46
2022-11-06T06:26:04.155Z,85.66
2022-11-06T06:28:33.039Z,85.82
2022-11-06T06:31:08.672Z,85.44
2022-11-06T06:33:43.648Z,85.36
2022-11-06T06:36:14.637Z,85.68
2022-11-06T06:38:55.179Z,85.67
2022-11-06T06:41:27.979Z,85.46
2022-11-06T06:43:59.383Z,85.15
2022-11-06T06:46:31.422Z,85.56
2022-11-06T06:49:03.583Z,85.40
2022-11-06T06:51:44.426Z,85.96
2022-11-06T06:54:20.178Z,86.02
2022-11-06T06:56:55.836Z,85.52
2022-11-06T06:59:29.408Z,85.28
2022-11-06T07:02:06.441Z,85.49
2022-11-06T07:04:37.598Z,85.41
2022-11-06T07:07:14.117Z,86.06
2022-11-06T07:09:45.734Z,85.74
2022-11-06T07:12:17.655Z,85.92
2022-11-06T07:14:52.270Z,85.08
2022-11-06T07:17:40.195Z,84.68
2022-11-06T07:20:23.858Z,84.62
2022-11-06T07:23:17.023Z,84.73
2022-11-06T07:26:04.009Z,84.97
2022-11-06T07:28:41.267Z,84.67
2022-11-06T07:31:19.354Z,84.26
2022-11-06T07:34:14.194Z,85.22
2022-11-06T07:36:58.743Z,84.49
2022-11-06T07:39:42.491Z,84.49
2022-11-06T07:42:32.274Z,83.84
2022-11-06T07:45:06.725Z,84.52
2022-11-06T07:47:58.887Z,84.32
2022-11-06T07:50:36.991Z,84.55
2022-11-06T07:53:14.907Z,83.95
2022-11-06T07:56:21.035Z,84.39
2022-11-06T07:59:42.345Z,83.90
2022-11-06T08:02:18.444Z,83.71
2022-11-06T08:05:04.438Z,84.01
2022-11-06T08:07:41.954Z,84.19
2022-11-06T08:10:14.644Z,83.79
2022-11-06T08:12:54.345Z,83.78
2022-11-06T08:15:33.846Z,83.85
2022-11-06T08:18:11.114Z,83.88
2022-11-06T08:20:47.918Z,83.98
2022-11-06T08:23:30.153Z,83.73
2022-11-06T08:26:08.361Z,83.57
2022-11-06T08:28:44.382Z,83.44
2022-11-06T08:31:20.455Z,83.71
2022-11-06T08:33:55.633Z,83.93
2022-11-06T08:36:35.214Z,83.93
2022-11-06T08:39:07.800Z,83.43
2022-11-06T08:41:37.689Z,82.99
2022-11-06T08:44:09.970Z,83.67
2022-11-06T08:46:50.725Z,83.60
2022-11-06T08:49:23.597Z,83.03
2022-11-06T08:51:52.664Z,83.25
2022-11-06T08:54:22.256Z,82.62
2022-11-06T08:56:53.357Z,83.27
2022-11-06T08:59:29.933Z,83.47
2022-11-06T09:02:01.947Z,83.54
2022-11-06T09:04:31.489Z,83.67
2022-11-06T09:07:03.690Z,82.96
2022-11-06T09:09:38.709Z,82.77
2022-11-06T09:12:07.919Z,83.15
2022-11-06T09:14:36.772Z,82.99
2022-11-06T09:17:06.254Z,82.87
2022-11-06T09:19:40.959Z,83.10
2022-11-06T09:22:10.809Z,82.67
2022-11-06T09:25:02.729Z,82.54
2022-11-06T09:27:55.876Z,82.27
2022-11-06T09:30:33.613Z,82.58
2022-11-06T09:33:09.166Z,82.83
2022-11-06T09:35:51.832Z,82.26
2022-11-06T09:38:31.701Z,82.16
2022-11-06T09:41:10.030Z,82.38
2022-11-06T09:52:07.336Z,81.84
2022-11-06T09:55:32.985Z,82.17
2022-11-06T09:58:56.469Z,82.26
2022-11-06T10:02:31.639Z,82.27
2022-11-06T10:05:49.578Z,81.99
2022-11-06T10:08:41.887Z,82.14
2022-11-06T10:14:53.851Z,81.63
2022-11-06T10:20:37.372Z,82.33
2022-11-06T10:26:40.530Z,82.63
2022-11-06T10:34:52.382Z,82.30
2022-11-06T10:37:35.060Z,82.04
2022-11-06T10:40:20.546Z,82.47
2022-11-06T10:45:57.897Z,81.17
2022-11-06T10:49:15.476Z,81.49
2022-11-06T10:55:40.687Z,82.25
2022-11-06T10:58:24.113Z,82.28
2022-11-06T11:01:12.561Z,82.52
2022-11-06T11:03:55.127Z,82.61
2022-11-06T11:06:35.628Z,82.29
2022-11-06T11:09:34.341Z,82.49
2022-11-06T11:12:29.819Z,83.50
2022-11-06T11:15:30.148Z,82.17
2022-11-06T11:18:41.573Z,82.44
2022-11-06T11:21:54.109Z,81.90
2022-11-06T11:24:41.686Z,82.34
2022-11-06T11:27:21.157Z,82.54
2022-11-06T11:30:14.839Z,82.50
2022-11-06T11:32:55.237Z,82.63
2022-11-06T11:35:42.584Z,82.81
2022-11-06T11:38:23.548Z,82.91
2022-11-06T11:41:28.930Z,82.62
2022-11-06T11:45:35.202Z,82.77
2022-11-06T12:08:45.685Z,82.26
2022-11-06T12:12:34.513Z,82.72
2022-11-06T12:18:00.619Z,83.04
2022-11-06T12:21:22.153Z,82.67
2022-11-06T12:24:31.725Z,82.46
2022-11-06T12:27:48.866Z,82.47
2022-11-06T12:59:43.653Z,84.12
2022-11-06T13:05:26.777Z,83.85
2022-11-06T13:14:14.278Z,83.70
2022-11-06T14:36:34.682Z,85.39
2022-11-06T14:43:01.613Z,85.59
2022-11-06T15:00:37.730Z,85.42
2022-11-06T15:15:57.064Z,85.18
2022-11-06T17:10:32.716Z,86.48
2022-11-06T17:49:35.523Z,87.50
2022-11-06T17:52:48.992Z,87.52
2022-11-06T18:11:19.393Z,88.15
2022-11-06T18:15:07.642Z,87.83
2022-11-06T18:23:40.789Z,88.00
2022-11-06T18:26:27.064Z,88.19
2022-11-06T18:29:26.009Z,88.10
2022-11-06T18:32:29.952Z,88.37
2022-11-06T18:35:31.111Z,88.13
2022-11-06T18:38:36.250Z,88.30
2022-11-06T18:41:23.563Z,88.25
2022-11-06T18:44:21.223Z,88.21
2022-11-06T18:47:32.966Z,88.25
2022-11-06T18:50:44.973Z,88.22
2022-11-06T19:19:25.340Z,88.11
2022-11-06T19:25:17.914Z,88.13
2022-11-06T19:28:23.247Z,88.33
2022-11-06T19:36:08.580Z,88.42
2022-11-06T19:48:32.189Z,88.26
2022-11-06T19:55:57.243Z,88.60
2022-11-06T20:03:32.308Z,88.60
2022-11-06T20:06:43.208Z,88.43
2022-11-06T20:12:40.052Z,88.57
2022-11-06T20:26:57.633Z,88.86
2022-11-06T20:48:57.598Z,88.83
2022-11-06T20:52:13.214Z,89.02
2022-11-06T20:55:34.833Z,89.02
2022-11-06T21:06:39.035Z,88.76
2022-11-06T21:20:58.914Z,88.84
2022-11-06T21:26:41.199Z,88.94
2022-11-06T21:29:55.347Z,89.08
2022-11-06T21:33:50.791Z,88.97
2022-11-06T21:37:51.420Z,88.89
2022-11-06T21:40:35.419Z,89.00
2022-11-06T21:44:07.606Z,89.01
2022-11-06T21:47:01.380Z,89.10
2022-11-06T21:57:57.654Z,89.08
2022-11-06T22:01:02.854Z,88.97
2022-11-06T22:03:52.169Z,89.03
2022-11-06T22:06:45.112Z,89.13
2022-11-06T22:09:26.059Z,88.93
2022-11-06T22:12:05.268Z,89.08
2022-11-06T22:14:56.211Z,89.06
2022-11-06T22:17:52.231Z,89.11
2022-11-06T22:21:19.014Z,89.08
2022-11-06T22:37:43.555Z,89.10
2022-11-06T22:41:11.631Z,88.99
2022-11-06T22:47:45.458Z,89.04
2022-11-06T22:50:23.243Z,89.13
2022-11-06T22:53:09.428Z,89.22
2022-11-06T22:56:08.290Z,89.84
2022-11-06T22:58:58.476Z,89.08
2022-11-06T23:01:42.440Z,89.17
2022-11-06T23:04:21.132Z,89.10
2022-11-06T23:06:56.897Z,89.11
2022-11-06T23:09:45.612Z,89.11
2022-11-06T23:12:49.310Z,89.10
2022-11-06T23:15:50.511Z,89.12
2022-11-06T23:18:31.992Z,89.06
2022-11-06T23:21:27.630Z,89.13
2022-11-06T23:24:18.731Z,89.05
2022-11-06T23:26:55.011Z,89.12
2022-11-06T23:29:45.924Z,89.04
2022-11-06T23:32:30.681Z,89.11
2022-11-06T23:35:08.088Z,88.96
2022-11-06T23:37:51.912Z,89.05
2022-11-06T23:40:36.143Z,88.94
2022-11-06T23:43:12.881Z,88.90
2022-11-06T23:45:54.931Z,89.00
2022-11-06T23:48:39.953Z,88.90
2022-11-06T23:51:16.813Z,88.86
2022-11-06T23:53:58.819Z,88.87
2022-11-06T23:56:49.289Z,88.77
2022-11-06T23:59:22.380Z,88.75
